createdAt,value
2023-05-24T00:00:29.922Z,102397.00
2023-05-24T00:02:58.055Z,102395.13
2023-05-24T00:05:25.894Z,102405.34
2023-05-24T00:07:55.060Z,102397.44
2023-05-24T00:10:22.795Z,102396.81
2023-05-24T00:12:50.555Z,102395.16
2023-05-24T00:15:18.323Z,102398.91
2023-05-24T00:17:46.284Z,102391.00
2023-05-24T00:20:14.604Z,102378.75
2023-05-24T00:22:43.171Z,102382.47
2023-05-24T00:25:12.361Z,102381.63
2023-05-24T00:27:40.175Z,102376.44
2023-05-24T00:30:09.017Z,102381.25
2023-05-24T00:32:36.888Z,102378.53
2023-05-24T00:35:05.382Z,102376.25
2023-05-24T00:37:33.126Z,102372.72
2023-05-24T00:40:00.883Z,102369.19
2023-05-24T00:42:29.992Z,102365.03
2023-05-24T00:44:57.717Z,102363.34
2023-05-24T00:47:25.654Z,102366.28
2023-05-24T00:49:53.498Z,102364.63
2023-05-24T00:52:21.490Z,102365.44
2023-05-24T00:54:49.786Z,102361.91
2023-05-24T00:57:18.943Z,102365.88
2023-05-24T00:59:48.330Z,102374.00
2023-05-24T01:02:17.048Z,102374.22
2023-05-24T01:04:45.069Z,102368.16
2023-05-24T01:07:21.601Z,102370.88
2023-05-24T01:10:02.678Z,102366.50
2023-05-24T01:12:37.943Z,102361.31
2023-05-24T01:15:12.906Z,102358.19
2023-05-24T01:17:49.443Z,102351.94
2023-05-24T01:20:19.688Z,102350.28
2023-05-24T01:23:31.070Z,102341.75
2023-05-24T01:26:22.232Z,102352.38
2023-05-24T01:28:52.072Z,102357.19
2023-05-24T01:31:21.247Z,102359.03
2023-05-24T01:33:49.162Z,102358.44
2023-05-24T01:36:16.892Z,102351.34
2023-05-24T01:38:45.022Z,102351.56
2023-05-24T01:41:24.552Z,102351.78
2023-05-24T01:43:59.039Z,102357.41
2023-05-24T01:46:35.963Z,102354.06
2023-05-24T01:49:12.575Z,102357.81
2023-05-24T01:51:49.163Z,102348.25
2023-05-24T01:54:21.039Z,102343.88
2023-05-24T01:56:50.102Z,102350.34
2023-05-24T01:59:20.246Z,102346.19
2023-05-24T02:01:48.715Z,102343.69
2023-05-24T02:04:16.996Z,102342.88
2023-05-24T02:06:44.809Z,102343.91
2023-05-24T02:09:12.553Z,102345.16
2023-05-24T02:11:40.492Z,102345.38
2023-05-24T02:14:08.272Z,102349.13
2023-05-24T02:16:42.867Z,102348.72
2023-05-24T02:19:10.896Z,102353.28
2023-05-24T02:21:38.677Z,102333.50
2023-05-24T02:24:07.687Z,102348.09
2023-05-24T02:26:35.812Z,102343.91
2023-05-24T02:29:03.755Z,102353.06
2023-05-24T02:31:31.679Z,102354.94
2023-05-24T02:34:00.943Z,102362.41
2023-05-24T02:36:28.956Z,102357.22
2023-05-24T02:38:56.809Z,102357.22
2023-05-24T02:41:24.554Z,102356.59
2023-05-24T02:43:52.286Z,102351.41
2023-05-24T02:46:20.039Z,102354.31
2023-05-24T02:48:49.639Z,102350.78
2023-05-24T02:51:18.753Z,102353.69
2023-05-24T02:53:46.476Z,102351.41
2023-05-24T02:56:17.396Z,102357.84
2023-05-24T02:58:46.087Z,102357.03
2023-05-24T03:01:14.110Z,102359.72
2023-05-24T03:03:42.173Z,102353.69
2023-05-24T03:06:10.054Z,102353.91
2023-05-24T03:08:39.148Z,102359.53
2023-05-24T03:11:07.076Z,102359.72
2023-05-24T03:13:34.858Z,102359.09
2023-05-24T03:16:02.633Z,102353.06
2023-05-24T03:18:30.501Z,102347.88
2023-05-24T03:20:58.314Z,102349.13
2023-05-24T03:23:26.053Z,102344.75
2023-05-24T03:25:55.162Z,102343.09
2023-05-24T03:28:23.203Z,102348.72
2023-05-24T03:30:50.960Z,102347.03
2023-05-24T03:33:18.708Z,102346.41
2023-05-24T03:35:46.622Z,102344.75
2023-05-24T03:38:14.328Z,102347.66
2023-05-24T03:40:42.288Z,102351.41
2023-05-24T03:43:11.976Z,102355.34
2023-05-24T03:45:40.290Z,102344.53
2023-05-24T03:48:08.197Z,102343.94
2023-05-24T03:50:36.451Z,102341.22
2023-05-24T03:53:04.300Z,102348.72
2023-05-24T03:55:32.134Z,102348.72
2023-05-24T03:57:59.937Z,102356.19
2023-05-24T04:00:29.068Z,102348.91
2023-05-24T04:02:56.953Z,102347.25
2023-05-24T04:05:27.090Z,102356.41
2023-05-24T04:07:54.998Z,102356.41
2023-05-24T04:10:22.916Z,102345.78
2023-05-24T04:12:50.824Z,102355.78
2023-05-24T04:15:18.756Z,102357.06
2023-05-24T04:17:48.538Z,102362.44
2023-05-24T04:20:16.468Z,102362.25
2023-05-24T04:22:44.184Z,102355.38
2023-05-24T04:25:12.005Z,102355.59
2023-05-24T04:27:39.917Z,102362.88
2023-05-24T04:30:09.314Z,102363.91
2023-05-24T04:32:37.153Z,102357.66
2023-05-24T04:35:07.234Z,102355.16
2023-05-24T04:37:34.985Z,102357.03
2023-05-24T04:40:04.288Z,102357.88
2023-05-24T04:42:32.513Z,102356.22
2023-05-24T04:45:00.314Z,102358.28
2023-05-24T04:47:28.081Z,102366.38
2023-05-24T04:49:55.868Z,102363.69
2023-05-24T04:52:25.002Z,102365.75
2023-05-24T04:54:52.915Z,102367.63
2023-05-24T04:57:20.687Z,102370.53
2023-05-24T04:59:48.492Z,102367.84
2023-05-24T05:02:16.455Z,102368.88
2023-05-24T05:04:44.268Z,102366.38
2023-05-24T05:07:12.040Z,102369.28
2023-05-24T05:09:41.261Z,102365.97
2023-05-24T05:12:09.344Z,102365.97
2023-05-24T05:14:37.083Z,102366.16
2023-05-24T05:17:04.965Z,102358.06
2023-05-24T05:19:32.722Z,102354.31
2023-05-24T05:22:00.679Z,102354.13
2023-05-24T05:24:28.476Z,102356.59
2023-05-24T05:26:57.581Z,102362.00
2023-05-24T05:29:25.317Z,102374.28
2023-05-24T05:31:53.149Z,102365.34
2023-05-24T05:34:21.286Z,102372.63
2023-05-24T05:36:49.098Z,102369.91
2023-05-24T05:39:16.853Z,102371.56
2023-05-24T05:41:46.412Z,102367.84
2023-05-24T05:44:16.269Z,102367.84
2023-05-24T05:46:46.142Z,102372.00
2023-05-24T05:49:15.327Z,102370.97
2023-05-24T05:51:43.366Z,102358.06
2023-05-24T05:54:15.469Z,102374.28
2023-05-24T05:56:45.696Z,102372.22
2023-05-24T05:59:13.660Z,102374.50
2023-05-24T06:01:42.846Z,102367.84
2023-05-24T06:04:11.062Z,102379.28
2023-05-24T06:06:38.906Z,102378.00
2023-05-24T06:09:06.787Z,102391.94
2023-05-24T06:11:34.550Z,102386.97
2023-05-24T06:14:02.659Z,102383.63
2023-05-24T06:16:32.544Z,102392.16
2023-05-24T06:19:06.297Z,102389.47
2023-05-24T06:21:36.607Z,102391.97
2023-05-24T06:24:04.687Z,102396.13
2023-05-24T06:26:32.410Z,102395.91
2023-05-24T06:29:00.166Z,102397.38
2023-05-24T06:31:27.960Z,102397.78
2023-05-24T06:34:03.715Z,102400.50
2023-05-24T06:36:35.940Z,102397.78
2023-05-24T06:39:04.090Z,102404.44
2023-05-24T06:41:31.856Z,102393.63
2023-05-24T06:43:59.744Z,102377.63
2023-05-24T06:46:27.645Z,102392.38
2023-05-24T06:48:55.543Z,102390.72
2023-05-24T06:51:23.439Z,102398.84
2023-05-24T06:53:53.008Z,102394.25
2023-05-24T06:56:21.487Z,102399.66
2023-05-24T06:58:49.284Z,102391.75
2023-05-24T07:01:17.183Z,102388.44
2023-05-24T07:03:45.026Z,102397.59
2023-05-24T07:06:14.188Z,102406.31
2023-05-24T07:08:42.223Z,102406.31
2023-05-24T07:11:11.494Z,102403.63
2023-05-24T07:13:39.798Z,102403.63
2023-05-24T07:16:08.064Z,102393.84
2023-05-24T07:18:35.862Z,102394.03
2023-05-24T07:21:03.655Z,102402.16
2023-05-24T07:23:32.404Z,102402.16
2023-05-24T07:26:00.198Z,102404.44
2023-05-24T07:28:29.282Z,102397.59
2023-05-24T07:30:57.066Z,102399.88
2023-05-24T07:33:24.869Z,102409.44
2023-05-24T07:35:52.650Z,102421.09
2023-05-24T07:38:21.087Z,102414.03
2023-05-24T07:40:49.070Z,102417.56
2023-05-24T07:43:16.843Z,102411.31
2023-05-24T07:45:45.964Z,102414.03
2023-05-24T07:48:13.770Z,102416.50
2023-05-24T07:50:41.995Z,102408.19
2023-05-24T07:53:09.938Z,102417.13
2023-05-24T07:55:37.846Z,102409.03
2023-05-24T07:58:05.691Z,102408.41
2023-05-24T08:00:33.806Z,102415.28
2023-05-24T08:03:03.222Z,102401.53
2023-05-24T08:05:31.082Z,102403.63
2023-05-24T08:07:59.106Z,102405.50
2023-05-24T08:10:27.566Z,102401.53
2023-05-24T08:12:56.176Z,102410.28
2023-05-24T08:15:24.155Z,102416.09
2023-05-24T08:17:52.001Z,102405.06
2023-05-24T08:20:21.429Z,102400.50
2023-05-24T08:22:49.414Z,102401.13
2023-05-24T08:25:17.270Z,102395.28
2023-05-24T08:27:45.040Z,102402.41
2023-05-24T08:30:14.205Z,102394.06
2023-05-24T08:32:42.042Z,102396.78
2023-05-24T08:35:19.513Z,102399.47
2023-05-24T08:37:50.113Z,102398.44
2023-05-24T08:40:18.205Z,102399.91
2023-05-24T08:42:46.940Z,102395.09
2023-05-24T08:45:16.257Z,102384.69
2023-05-24T08:47:44.656Z,102395.09
2023-05-24T08:50:12.775Z,102385.94
2023-05-24T08:52:42.667Z,102382.19
2023-05-24T08:55:12.873Z,102377.41
2023-05-24T08:57:41.397Z,102377.41
2023-05-24T09:00:12.825Z,102379.06
2023-05-24T09:02:42.237Z,102385.09
2023-05-24T09:05:12.569Z,102374.06
2023-05-24T09:07:41.842Z,102374.69
2023-05-24T09:10:11.835Z,102371.97
2023-05-24T09:12:41.685Z,102370.94
2023-05-24T09:15:10.064Z,102368.84
2023-05-24T09:17:38.899Z,102366.53
2023-05-24T09:20:11.421Z,102374.03
2023-05-24T09:22:42.815Z,102362.56
2023-05-24T09:25:14.908Z,102373.81
2023-05-24T09:27:46.151Z,102377.31
2023-05-24T09:30:16.443Z,102374.41
2023-05-24T09:32:57.109Z,102365.22
2023-05-24T09:35:26.774Z,102373.31
2023-05-24T09:37:57.299Z,102366.03
2023-05-24T09:40:27.106Z,102360.19
2023-05-24T09:43:05.898Z,102358.31
2023-05-24T09:45:33.680Z,102355.59
2023-05-24T09:48:04.978Z,102350.81
2023-05-24T09:50:32.988Z,102359.56
2023-05-24T09:53:01.057Z,102345.22
2023-05-24T09:55:31.041Z,102351.63
2023-05-24T09:58:04.545Z,102348.06
2023-05-24T10:00:36.702Z,102349.53
2023-05-24T10:03:07.151Z,102340.97
2023-05-24T10:05:36.360Z,102343.47
2023-05-24T10:08:05.721Z,102354.06
2023-05-24T10:10:35.098Z,102347.63
2023-05-24T10:13:03.867Z,102350.94
2023-05-24T10:15:31.832Z,102355.09
2023-05-24T10:18:00.530Z,102354.88
2023-05-24T10:20:28.640Z,102346.97
2023-05-24T10:23:01.743Z,102348.41
2023-05-24T10:25:30.798Z,102345.25
2023-05-24T10:28:04.358Z,102357.53
2023-05-24T10:30:37.578Z,102349.19
2023-05-24T10:33:08.594Z,102345.44
2023-05-24T10:35:38.062Z,102333.56
2023-05-24T10:38:07.735Z,102348.56
2023-05-24T10:40:36.261Z,102339.16
2023-05-24T10:43:07.127Z,102344.13
2023-05-24T10:45:38.104Z,102340.16
2023-05-24T10:48:33.718Z,102339.50
2023-05-24T10:51:04.548Z,102330.75
2023-05-24T10:53:40.972Z,102334.06
2023-05-24T10:56:10.550Z,102331.94
2023-05-24T10:58:59.543Z,102335.28
2023-05-24T11:01:28.373Z,102337.53
2023-05-24T11:04:08.529Z,102332.34
2023-05-24T11:06:50.389Z,102332.34
2023-05-24T11:09:20.200Z,102337.97
2023-05-24T11:11:49.936Z,102331.28
2023-05-24T11:14:22.886Z,102330.84
2023-05-24T11:19:20.476Z,102329.38
2023-05-24T11:21:49.672Z,102317.31
2023-05-24T11:24:18.442Z,102330.16
2023-05-24T11:26:46.967Z,102326.38
2023-05-24T11:29:17.805Z,102329.69
2023-05-24T11:31:51.239Z,102332.41
2023-05-24T11:34:19.385Z,102323.66
2023-05-24T11:36:47.962Z,102326.38
2023-05-24T11:39:16.645Z,102328.66
2023-05-24T11:41:44.785Z,102329.25
2023-05-24T11:44:13.557Z,102320.75
2023-05-24T11:46:44.122Z,102325.28
2023-05-24T11:49:15.936Z,102332.13
2023-05-24T11:51:44.642Z,102318.59
2023-05-24T11:54:12.681Z,102321.91
2023-05-24T11:56:40.548Z,102324.63
2023-05-24T11:59:15.874Z,102325.88
2023-05-24T12:01:43.925Z,102319.19
2023-05-24T12:04:12.936Z,102315.44
2023-05-24T12:06:44.423Z,102318.13
2023-05-24T12:09:14.347Z,102314.00
2023-05-24T12:11:43.164Z,102321.47
2023-05-24T12:14:14.580Z,102317.91
2023-05-24T12:16:43.480Z,102322.06
2023-05-24T12:19:31.753Z,102311.06
2023-05-24T12:22:06.016Z,102321.25
2023-05-24T12:24:33.875Z,102322.28
2023-05-24T12:27:03.466Z,102293.56
2023-05-24T12:29:35.055Z,102322.91
2023-05-24T12:32:03.780Z,102315.81
2023-05-24T12:34:31.600Z,102321.63
2023-05-24T12:37:00.683Z,102306.03
2023-05-24T12:39:31.787Z,102320.97
2023-05-24T12:42:01.864Z,102320.72
2023-05-24T12:44:31.359Z,102320.72
2023-05-24T12:46:59.894Z,102318.84
2023-05-24T12:49:27.897Z,102315.53
2023-05-24T12:51:56.676Z,102316.38
2023-05-24T12:54:25.537Z,102320.13
2023-05-24T12:56:57.264Z,102321.34
2023-05-24T12:59:25.718Z,102313.81
2023-05-24T13:01:53.979Z,102313.59
2023-05-24T13:04:24.354Z,102310.66
2023-05-24T13:06:52.218Z,102304.78
2023-05-24T13:09:21.852Z,102311.88
2023-05-24T13:11:50.286Z,102308.94
2023-05-24T13:14:20.806Z,102307.88
2023-05-24T13:16:49.098Z,102311.41
2023-05-24T13:19:17.321Z,102304.13
2023-05-24T13:21:45.524Z,102308.47
2023-05-24T13:24:14.698Z,102301.19
2023-05-24T13:26:42.495Z,102304.72
2023-05-24T13:31:42.808Z,102313.69
2023-05-24T13:34:11.318Z,102309.69
2023-05-24T13:36:39.769Z,102312.19
2023-05-24T13:41:41.293Z,102305.88
2023-05-24T13:44:09.858Z,102296.88
2023-05-24T13:46:38.322Z,102306.47
2023-05-24T13:49:09.245Z,102298.56
2023-05-24T13:51:37.333Z,102303.38
2023-05-24T13:54:07.217Z,102300.88
2023-05-24T13:56:35.381Z,102302.53
2023-05-24T13:59:05.251Z,102300.44
2023-05-24T14:01:33.671Z,102299.16
2023-05-24T14:04:02.587Z,102301.66
2023-05-24T14:06:31.971Z,102303.06
2023-05-24T14:09:00.337Z,102306.63
2023-05-24T14:11:31.445Z,102307.44
2023-05-24T14:16:31.061Z,102297.03
2023-05-24T14:18:59.208Z,102296.81
2023-05-24T14:21:27.363Z,102288.22
2023-05-24T14:23:57.967Z,102277.16
2023-05-24T14:26:25.735Z,102275.25
2023-05-24T14:28:56.273Z,102286.94
2023-05-24T14:31:25.172Z,102279.63
2023-05-24T14:33:53.093Z,102280.25
2023-05-24T14:36:20.886Z,102268.09
2023-05-24T14:38:48.644Z,102272.25
2023-05-24T14:41:17.808Z,102272.63
2023-05-24T14:43:45.536Z,102274.88
2023-05-24T14:46:13.358Z,102274.69
2023-05-24T14:48:41.796Z,102271.75
2023-05-24T14:51:09.682Z,102282.97
2023-05-24T14:53:37.465Z,102282.75
2023-05-24T14:56:07.516Z,102279.81
2023-05-24T14:58:37.036Z,102281.69
2023-05-24T15:01:04.920Z,102286.06
2023-05-24T15:03:32.976Z,102288.78
2023-05-24T15:06:01.010Z,102276.03
2023-05-24T15:08:28.780Z,102285.25
2023-05-24T15:10:58.728Z,102283.13
2023-05-24T15:13:26.974Z,102285.00
2023-05-24T15:16:00.235Z,102289.38
2023-05-24T15:18:28.978Z,102286.44
2023-05-24T15:20:57.093Z,102291.41
2023-05-24T15:23:25.809Z,102289.53
2023-05-24T15:25:53.619Z,102287.41
2023-05-24T15:28:22.109Z,102281.16
2023-05-24T15:30:50.760Z,102286.34
2023-05-24T15:33:19.922Z,102287.41
2023-05-24T15:35:47.774Z,102289.31
2023-05-24T15:38:17.576Z,102292.00
2023-05-24T15:40:46.231Z,102296.63
2023-05-24T15:43:15.547Z,102287.66
2023-05-24T15:45:44.037Z,102300.16
2023-05-24T15:48:12.814Z,102293.69
2023-05-24T15:53:12.732Z,102292.38
2023-05-24T15:55:40.551Z,102296.75
2023-05-24T15:58:08.330Z,102291.34
2023-05-24T16:00:36.122Z,102300.31
2023-05-24T16:03:03.950Z,102295.09
2023-05-24T16:05:31.853Z,102307.84
2023-05-24T16:08:02.540Z,102302.03
2023-05-24T16:10:30.829Z,102299.34
2023-05-24T16:12:58.692Z,102292.25
2023-05-24T16:15:26.925Z,102296.25
2023-05-24T16:17:54.883Z,102289.38
2023-05-24T16:20:22.834Z,102287.50
2023-05-24T16:22:50.788Z,102288.56
2023-05-24T16:25:19.883Z,102286.91
2023-05-24T16:27:47.651Z,102281.47
2023-05-24T16:30:15.644Z,102281.25
2023-05-24T16:32:45.238Z,102281.25
2023-05-24T16:35:13.155Z,102283.94
2023-05-24T16:37:40.975Z,102272.25
2023-05-24T16:40:09.520Z,102272.25
2023-05-24T16:42:38.655Z,102276.88
2023-05-24T16:45:07.559Z,102277.09
2023-05-24T16:47:35.905Z,102269.19
2023-05-24T16:50:03.959Z,102272.94
2023-05-24T16:52:31.707Z,102271.28
2023-05-24T16:55:00.045Z,102261.25
2023-05-24T16:57:27.877Z,102261.03
2023-05-24T16:59:58.204Z,102264.56
2023-05-24T17:02:26.444Z,102252.06
2023-05-24T17:04:54.382Z,102245.66
2023-05-24T17:07:22.376Z,102258.31
2023-05-24T17:09:51.506Z,102256.66
2023-05-24T17:12:21.103Z,102258.53
2023-05-24T17:14:48.938Z,102253.13
2023-05-24T17:17:18.082Z,102253.94
2023-05-24T17:19:45.850Z,102246.84
2023-05-24T17:22:13.981Z,102248.50
2023-05-24T17:24:41.708Z,102239.41
2023-05-24T17:27:09.479Z,102250.16
2023-05-24T17:29:37.264Z,102261.84
2023-05-24T17:32:05.626Z,102261.03
2023-05-24T17:34:34.826Z,102256.44
2023-05-24T17:37:02.717Z,102254.78
2023-05-24T17:39:30.788Z,102259.97
2023-05-24T17:41:58.618Z,102258.31
2023-05-24T17:44:26.356Z,102272.13
2023-05-24T17:46:54.321Z,102266.09
2023-05-24T17:49:22.101Z,102265.72
2023-05-24T17:51:51.249Z,102275.06
2023-05-24T17:54:19.063Z,102285.09
2023-05-24T17:56:46.875Z,102282.59
2023-05-24T17:59:14.612Z,102284.50
2023-05-24T18:01:43.089Z,102285.53
2023-05-24T18:04:11.145Z,102283.03
2023-05-24T18:06:38.955Z,102279.47
2023-05-24T18:09:08.459Z,102290.34
2023-05-24T18:11:36.674Z,102292.22
2023-05-24T18:14:04.531Z,102295.16
2023-05-24T18:16:32.417Z,102295.38
2023-05-24T18:19:00.273Z,102300.81
2023-05-24T18:21:28.044Z,102304.38
2023-05-24T18:23:55.767Z,102303.53
2023-05-24T18:26:24.915Z,102299.16
2023-05-24T18:28:52.701Z,102305.41
2023-05-24T18:31:20.631Z,102310.03
2023-05-24T18:33:48.420Z,102306.47
2023-05-24T18:36:16.547Z,102311.91
2023-05-24T18:38:47.184Z,102308.34
2023-05-24T18:41:16.509Z,102313.56
2023-05-24T18:43:45.699Z,102315.22
2023-05-24T18:46:14.886Z,102306.84
2023-05-24T18:48:43.357Z,102310.16
2023-05-24T18:51:11.316Z,102311.00
2023-05-24T18:53:40.124Z,102302.03
2023-05-24T18:56:08.076Z,102308.28
2023-05-24T18:58:35.880Z,102309.16
2023-05-24T19:01:05.115Z,102306.63
2023-05-24T19:03:33.075Z,102304.97
2023-05-24T19:06:00.853Z,102311.44
2023-05-24T19:08:28.699Z,102306.84
2023-05-24T19:10:56.443Z,102314.56
2023-05-24T19:13:24.199Z,102320.84
2023-05-24T19:15:53.547Z,102318.31
2023-05-24T19:18:23.058Z,102308.50
2023-05-24T19:20:50.978Z,102316.06
2023-05-24T19:23:18.785Z,102323.38
2023-05-24T19:25:50.087Z,102322.75
2023-05-24T19:28:18.220Z,102325.69
2023-05-24T19:30:45.972Z,102327.59
2023-05-24T19:33:13.814Z,102332.41
2023-05-24T19:35:43.122Z,102338.06
2023-05-24T19:38:12.051Z,102351.63
2023-05-24T19:40:39.843Z,102343.94
2023-05-24T19:43:07.683Z,102346.66
2023-05-24T19:45:35.389Z,102352.31
2023-05-24T19:48:04.937Z,102350.66
2023-05-24T19:50:32.906Z,102344.38
2023-05-24T19:53:02.004Z,102348.38
2023-05-24T19:55:30.174Z,102347.56
2023-05-24T19:57:57.937Z,102354.03
2023-05-24T20:00:25.861Z,102355.09
2023-05-24T20:02:53.840Z,102363.44
2023-05-24T20:05:21.728Z,102361.78
2023-05-24T20:07:49.571Z,102366.38
2023-05-24T20:10:18.766Z,102365.78
2023-05-24T20:12:46.665Z,102373.09
2023-05-24T20:15:17.295Z,102367.06
2023-05-24T20:17:46.496Z,102368.94
2023-05-24T20:20:14.439Z,102373.53
2023-05-24T20:22:42.411Z,102374.59
2023-05-24T20:25:10.288Z,102370.22
2023-05-24T20:27:41.787Z,102377.53
2023-05-24T20:30:10.354Z,102382.94
2023-05-24T20:32:38.160Z,102383.16
2023-05-24T20:35:07.137Z,102382.34
2023-05-24T20:37:35.035Z,102382.56
2023-05-24T20:40:03.520Z,102380.06
2023-05-24T20:42:31.836Z,102383.84
2023-05-24T20:45:01.173Z,102389.25
2023-05-24T20:47:30.438Z,102392.19
2023-05-24T20:49:58.309Z,102392.41
2023-05-24T20:52:26.041Z,102396.19
2023-05-24T20:54:53.854Z,102391.81
2023-05-24T20:57:21.572Z,102397.22
2023-05-24T20:59:49.395Z,102398.28
2023-05-24T21:02:18.666Z,102398.50
2023-05-24T21:04:46.452Z,102397.69
2023-05-24T21:07:14.174Z,102398.72
2023-05-24T21:09:41.945Z,102399.78
2023-05-24T21:12:09.868Z,102407.09
2023-05-24T21:14:37.632Z,102400.22
2023-05-24T21:17:05.654Z,102414.84
2023-05-24T21:19:34.780Z,102408.56
2023-05-24T21:22:02.605Z,102415.88
2023-05-24T21:24:30.412Z,102418.81
2023-05-24T21:26:58.174Z,102420.69
2023-05-24T21:29:25.975Z,102420.91
2023-05-24T21:31:53.732Z,102424.69
2023-05-24T21:34:21.495Z,102421.34
2023-05-24T21:36:50.711Z,102426.78
2023-05-24T21:39:19.053Z,102422.41
2023-05-24T21:41:46.830Z,102432.66
2023-05-24T21:44:14.594Z,102424.72
2023-05-24T21:46:42.385Z,102423.28
2023-05-24T21:49:10.181Z,102428.72
2023-05-24T21:51:38.408Z,102427.03
2023-05-24T21:54:07.614Z,102433.72
2023-05-24T21:56:35.394Z,102426.88
2023-05-24T21:59:03.132Z,102413.56
2023-05-24T22:01:30.982Z,102442.53
2023-05-24T22:03:59.310Z,102447.13
2023-05-24T22:06:27.096Z,102439.19
2023-05-24T22:08:55.501Z,102446.72
2023-05-24T22:11:24.688Z,102438.00
2023-05-24T22:13:52.462Z,102454.03
2023-05-24T22:16:20.464Z,102457.16
2023-05-24T22:18:48.929Z,102453.63
2023-05-24T22:21:18.649Z,102453.00
2023-05-24T22:23:46.391Z,102451.34
2023-05-24T22:26:17.137Z,102453.22
2023-05-24T22:28:54.761Z,102448.03
2023-05-24T22:31:24.010Z,102451.78
2023-05-24T22:33:52.126Z,102452.00
2023-05-24T22:36:20.926Z,102449.50
2023-05-24T22:38:48.721Z,102443.91
2023-05-24T22:41:16.546Z,102442.25
2023-05-24T22:43:44.283Z,102450.16
2023-05-24T22:46:13.470Z,102450.38
2023-05-24T22:48:41.326Z,102449.53
2023-05-24T22:51:09.157Z,102456.47
2023-05-24T22:53:39.311Z,102439.38
2023-05-24T22:56:07.854Z,102454.81
2023-05-24T22:58:35.631Z,102462.09
2023-05-24T23:01:03.481Z,102465.66
2023-05-24T23:03:32.757Z,102460.41
2023-05-24T23:06:04.034Z,102457.91
2023-05-24T23:08:32.713Z,102457.09
2023-05-24T23:11:01.023Z,102452.31
2023-05-24T23:13:33.092Z,102462.09
2023-05-24T23:16:01.067Z,102454.81
2023-05-24T23:18:28.884Z,102454.19
2023-05-24T23:20:58.008Z,102459.22
2023-05-24T23:23:25.807Z,102452.97
2023-05-24T23:25:53.656Z,102468.38
2023-05-24T23:28:21.378Z,102464.22
2023-05-24T23:30:49.173Z,102464.22
2023-05-24T23:33:17.028Z,102465.28
2023-05-24T23:35:45.074Z,102465.47
2023-05-24T23:38:14.978Z,102468.19
2023-05-24T23:40:42.906Z,102461.09
2023-05-24T23:43:10.653Z,102468.41
2023-05-24T23:45:38.378Z,102459.66
2023-05-24T23:48:06.427Z,102462.59
2023-05-24T23:50:46.282Z,102476.97
2023-05-24T23:53:22.442Z,102473.41
2023-05-24T23:55:50.218Z,102470.94
2023-05-24T23:58:17.956Z,102471.13
